Time;durP1;ratioP1;P1;durP2;ratioP2;P2;SDS_P1;SDS_P2;PMS_P1;PMS_P2;Temp;Humidity;BMP_temperature;BMP_pressure;BME280_temperature;BME280_humidity;BME280_pressure;Samples;Min_cycle;Max_cycle;Signal;HPM_P1;HPM_P2
2022/11/05 00:10:19;;;;;;;2.80;2.60;;;14.80;61.10;;;;;;5081389;28;20459;-90
2022/11/05 00:18:16;;;;;;;3.93;3.53;;;14.90;61.30;;;;;;5071455;28;20455;-93
2022/11/05 00:20:44;;;;;;;4.73;4.20;;;14.90;61.20;;;;;;5046551;28;20474;-90
2022/11/05 00:25:57;;;;;;;4.20;3.77;;;14.80;60.60;;;;;;5073233;28;20493;-90
2022/11/05 00:28:24;;;;;;;3.83;3.40;;;14.50;61.30;;;;;;5066026;28;21055;-91
2022/11/05 00:30:51;;;;;;;5.03;3.60;;;14.60;61.70;;;;;;5069336;28;20513;-90
2022/11/05 00:33:20;;;;;;;6.00;3.80;;;14.70;61.90;;;;;;5060557;28;20954;-91
2022/11/05 00:35:47;;;;;;;4.43;3.00;;;14.80;61.70;;;;;;5057634;28;20454;-90
2022/11/05 00:38:14;;;;;;;4.43;3.40;;;14.80;61.40;;;;;;5082185;28;20452;-90
2022/11/05 00:40:42;;;;;;;4.83;3.10;;;14.80;61.50;;;;;;5050989;28;20516;-92
2022/11/05 00:45:53;;;;;;;5.50;5.00;;;14.80;61.50;;;;;;5061726;28;20442;-91
2022/11/05 00:51:07;;;;;;;7.80;4.30;;;14.80;61.00;;;;;;5081008;28;20478;-90
2022/11/05 00:53:36;;;;;;;6.30;3.50;;;14.80;61.10;;;;;;5064338;28;20455;-91
2022/11/05 00:56:03;;;;;;;6.53;3.87;;;14.80;61.40;;;;;;5062392;28;20531;-91
2022/11/05 00:58:30;;;;;;;6.23;5.03;;;14.80;61.40;;;;;;5078884;28;20486;-91
2022/11/05 01:00:59;;;;;;;11.23;6.33;;;14.80;61.30;;;;;;5096058;28;20458;-90
2022/11/05 01:03:30;;;;;;;20.60;9.33;;;14.80;61.10;;;;;;5077689;28;20452;-90
2022/11/05 01:05:59;;;;;;;12.47;9.13;;;14.90;61.30;;;;;;5085538;28;20447;-90
2022/11/05 01:08:28;;;;;;;13.70;9.20;;;14.80;61.00;;;;;;5095605;28;20954;-91
2022/11/05 01:10:56;;;;;;;12.30;7.80;;;14.80;60.90;;;;;;5072236;28;20512;-91
2022/11/05 01:13:25;;;;;;;13.43;8.03;;;14.80;60.90;;;;;;5082082;28;20501;-93
2022/11/05 01:15:53;;;;;;;7.20;4.70;;;14.80;61.10;;;;;;5072187;28;20455;-90
2022/11/05 01:18:21;;;;;;;5.00;4.37;;;14.80;61.40;;;;;;5067195;28;20446;-89
2022/11/05 01:20:50;;;;;;;6.00;4.07;;;14.70;61.80;;;;;;5067383;28;22272;-88
2022/11/05 01:23:17;;;;;;;3.87;3.53;;;14.70;62.30;;;;;;5073056;28;20466;-91
2022/11/05 01:25:45;;;;;;;4.43;3.40;;;14.70;61.30;;;;;;5081565;28;20958;-89
2022/11/05 01:28:12;;;;;;;3.87;3.53;;;14.70;61.40;;;;;;5067661;28;20471;-90
2022/11/05 01:30:39;;;;;;;3.20;2.87;;;14.70;61.30;;;;;;5103625;28;20458;-89
2022/11/05 01:33:07;;;;;;;3.00;2.60;;;14.70;61.10;;;;;;5064529;28;20470;-90
2022/11/05 01:35:34;;;;;;;3.97;2.83;;;14.60;60.60;;;;;;5082015;28;20447;-90
2022/11/05 01:38:03;;;;;;;5.90;3.23;;;14.50;60.90;;;;;;5056675;28;20533;-90
2022/11/05 01:40:30;;;;;;;3.33;2.93;;;14.50;61.40;;;;;;5100812;28;20479;-90
2022/11/05 01:42:57;;;;;;;5.37;4.87;;;14.50;61.80;;;;;;5074537;28;20499;-90
2022/11/05 01:45:26;;;;;;;9.10;3.87;;;14.50;61.60;;;;;;5048292;28;20466;-92
2022/11/05 01:48:06;;;;;;;4.00;2.87;;;14.60;61.50;;;;;;5072303;28;20455;-89
2022/11/05 01:50:38;;;;;;;3.67;3.30;;;14.60;61.50;;;;;;5079847;28;20464;-90
2022/11/05 01:53:12;;;;;;;5.93;3.00;;;14.60;61.60;;;;;;5058433;28;20566;-90
2022/11/05 01:55:42;;;;;;;3.17;2.40;;;14.60;61.50;;;;;;5054142;28;20501;-90
2022/11/05 01:58:13;;;;;;;3.33;2.60;;;14.60;61.40;;;;;;5053901;28;20443;-89
2022/11/05 02:00:42;;;;;;;2.80;2.57;;;14.60;61.40;;;;;;5083753;28;20475;-90
2022/11/05 02:03:09;;;;;;;4.90;3.00;;;14.60;61.40;;;;;;5084745;28;20447;-89
2022/11/05 02:05:36;;;;;;;5.00;3.13;;;14.60;61.40;;;;;;5072731;28;20455;-90
2022/11/05 02:08:04;;;;;;;3.97;3.60;;;14.60;61.40;;;;;;5080663;28;20467;-93
2022/11/05 02:10:33;;;;;;;7.23;4.40;;;14.60;61.60;;;;;;5097800;28;20471;-89
2022/11/05 02:13:00;;;;;;;4.30;3.77;;;14.60;61.30;;;;;;5064400;28;20526;-91
2022/11/05 02:15:35;;;;;;;4.27;3.27;;;14.60;61.10;;;;;;5067342;28;20519;-90
2022/11/05 02:18:15;;;;;;;3.43;3.13;;;14.60;61.10;;;;;;5082410;28;20496;-90
2022/11/05 02:20:49;;;;;;;2.97;2.77;;;14.40;61.40;;;;;;5047229;28;20470;-91
2022/11/05 02:23:51;;;;;;;5.17;3.40;;;14.30;62.10;;;;;;5100894;28;20444;-90
2022/11/05 02:27:02;;;;;;;4.90;3.30;;;14.40;62.40;;;;;;5088104;28;20447;-90
2022/11/05 02:30:07;;;;;;;5.90;3.40;;;14.50;62.10;;;;;;5065190;28;20479;-90
2022/11/05 02:32:59;;;;;;;3.67;3.07;;;14.50;61.80;;;;;;5083612;28;20589;-90
2022/11/05 02:35:42;;;;;;;4.10;3.17;;;14.60;61.60;;;;;;5099008;28;20542;-90
2022/11/05 02:38:13;;;;;;;5.10;3.77;;;14.60;61.70;;;;;;5088780;28;20532;-90
2022/11/05 02:40:48;;;;;;;6.67;4.00;;;14.60;61.70;;;;;;5100641;28;21161;-91
2022/11/05 02:43:24;;;;;;;6.33;3.60;;;14.60;62.40;;;;;;5078741;28;20458;-90
2022/11/05 02:46:00;;;;;;;4.53;3.93;;;14.60;61.50;;;;;;5096749;28;20454;-90
2022/11/05 02:48:36;;;;;;;5.10;4.27;;;14.40;61.70;;;;;;5095063;28;20534;-90
2022/11/05 02:51:11;;;;;;;7.03;4.60;;;14.50;62.20;;;;;;5067078;28;20471;-92
2022/11/05 02:53:45;;;;;;;4.90;4.17;;;14.40;62.50;;;;;;5087271;28;20451;-89
2022/11/05 02:56:20;;;;;;;5.10;4.47;;;14.50;62.40;;;;;;5093977;28;20652;-90
2022/11/05 02:58:47;;;;;;;5.47;4.27;;;14.50;61.80;;;;;;5082766;28;20434;-90
2022/11/05 03:01:14;;;;;;;10.97;4.60;;;14.60;61.80;;;;;;5097032;28;20552;-90
2022/11/05 03:03:45;;;;;;;5.83;4.97;;;14.60;62.00;;;;;;5091695;28;20482;-92
2022/11/05 03:06:48;;;;;;;11.50;4.33;;;14.60;62.00;;;;;;5095684;28;20521;-90
2022/11/05 03:09:53;;;;;;;7.90;5.07;;;14.50;62.10;;;;;;5093643;28;20515;-91
2022/11/05 03:12:31;;;;;;;6.10;4.47;;;14.60;62.00;;;;;;5027905;28;21338;-89
2022/11/05 03:15:08;;;;;;;7.10;4.23;;;14.60;62.10;;;;;;5081983;28;20447;-92
2022/11/05 03:17:43;;;;;;;5.73;3.90;;;14.60;62.10;;;;;;5061357;28;20454;-90
2022/11/05 03:20:19;;;;;;;10.33;4.57;;;14.60;62.20;;;;;;5094598;28;20990;-90
2022/11/05 03:22:52;;;;;;;6.03;4.40;;;14.60;62.60;;;;;;5070564;28;20981;-92
2022/11/05 03:25:22;;;;;;;7.07;4.67;;;14.60;62.80;;;;;;5086190;28;20463;-91
2022/11/05 03:27:56;;;;;;;14.23;6.30;;;14.50;63.20;;;;;;5095110;28;20455;-92
2022/11/05 03:30:24;;;;;;;6.10;4.77;;;14.40;63.50;;;;;;5097082;28;21002;-89
2022/11/05 03:32:56;;;;;;;7.57;5.07;;;14.50;63.40;;;;;;5078711;28;20463;-90
2022/11/05 03:35:28;;;;;;;10.97;5.40;;;14.60;63.50;;;;;;5061707;28;20970;-89
2022/11/05 03:38:01;;;;;;;7.03;4.70;;;14.60;62.80;;;;;;5093293;27;20884;-89
2022/11/05 03:40:33;;;;;;;7.23;5.20;;;14.50;63.40;;;;;;5096070;28;20480;-90
2022/11/05 03:43:01;;;;;;;7.83;5.60;;;14.50;63.60;;;;;;5095366;28;20476;-90
2022/11/05 03:45:34;;;;;;;9.50;5.53;;;14.50;63.20;;;;;;5094021;28;20456;-91
2022/11/05 03:48:03;;;;;;;7.83;5.23;;;14.60;63.40;;;;;;5102647;28;20448;-90
2022/11/05 03:50:38;;;;;;;10.00;6.00;;;14.60;63.40;;;;;;5097763;28;20478;-88
2022/11/05 03:53:12;;;;;;;9.10;6.00;;;14.50;64.00;;;;;;5094204;28;20534;-89
2022/11/05 03:55:46;;;;;;;8.80;6.10;;;14.50;64.10;;;;;;5092647;28;20820;-89
2022/11/05 03:58:15;;;;;;;7.33;5.67;;;14.60;63.70;;;;;;5096207;28;21045;-88
2022/11/05 04:00:42;;;;;;;9.13;6.43;;;14.70;63.40;;;;;;5083021;28;20497;-89
2022/11/05 04:03:09;;;;;;;9.10;6.20;;;14.80;63.30;;;;;;5069521;28;20586;-90
2022/11/05 04:05:38;;;;;;;10.00;5.77;;;14.80;63.10;;;;;;5093581;28;20451;-89
2022/11/05 04:13:34;;;;;;;7.40;5.40;;;14.80;63.30;;;;;;5095266;28;20428;-89
2022/11/05 04:18:45;;;;;;;10.40;6.23;;;14.70;63.80;;;;;;5093458;28;20442;-88
2022/11/05 04:24:08;;;;;;;10.30;5.43;;;14.70;63.80;;;;;;5078679;28;20460;-89
2022/11/05 04:26:35;;;;;;;8.73;6.10;;;14.70;63.90;;;;;;5096521;28;20939;-89
2022/11/05 04:31:47;;;;;;;8.10;5.63;;;14.80;64.10;;;;;;5079492;28;20532;-90
2022/11/05 04:34:17;;;;;;;8.60;6.03;;;14.80;64.00;;;;;;5076665;28;20978;-90
2022/11/05 04:36:48;;;;;;;9.60;5.83;;;14.80;64.20;;;;;;5067358;28;20524;-88
2022/11/05 04:39:16;;;;;;;7.70;5.03;;;14.80;64.00;;;;;;5094059;28;20939;-88
2022/11/05 04:41:45;;;;;;;9.10;6.07;;;14.90;63.90;;;;;;5071086;28;20589;-89
2022/11/05 04:44:12;;;;;;;10.23;6.37;;;14.90;64.10;;;;;;5095491;28;20459;-88
2022/11/05 04:46:39;;;;;;;6.47;5.03;;;14.90;63.80;;;;;;5095421;28;20619;-87
2022/11/05 04:49:05;;;;;;;7.27;5.63;;;14.90;63.50;;;;;;5096278;28;20935;-89
2022/11/05 04:51:33;;;;;;;9.73;6.83;;;14.90;63.20;;;;;;5093258;28;20442;-88
2022/11/05 04:54:02;;;;;;;9.00;5.00;;;14.90;63.20;;;;;;5101740;28;20459;-89
2022/11/05 04:56:29;;;;;;;10.93;4.40;;;14.90;63.10;;;;;;5091581;28;20495;-87
2022/11/05 04:58:56;;;;;;;10.30;5.30;;;14.90;63.00;;;;;;5095158;28;20495;-88
2022/11/05 05:01:24;;;;;;;5.53;4.80;;;14.90;63.50;;;;;;5102345;28;20578;-88
2022/11/05 05:03:53;;;;;;;6.17;4.70;;;14.80;63.80;;;;;;5089858;28;20442;-89
2022/11/05 05:06:21;;;;;;;7.13;4.70;;;14.80;63.30;;;;;;5094343;28;20801;-88
2022/11/05 05:08:49;;;;;;;7.60;5.03;;;14.80;63.70;;;;;;5073635;28;21045;-88
2022/11/05 05:11:19;;;;;;;5.43;4.83;;;14.70;63.90;;;;;;5090609;28;20566;-90
2022/11/05 05:13:47;;;;;;;7.93;5.33;;;14.80;63.70;;;;;;5084185;28;20485;-87
2022/11/05 05:16:20;;;;;;;8.47;7.27;;;14.80;63.00;;;;;;5076601;28;20474;-91
2022/11/05 05:18:48;;;;;;;10.10;6.80;;;14.80;63.30;;;;;;5080323;28;20446;-88
2022/11/05 05:24:00;;;;;;;8.57;6.20;;;14.70;63.40;;;;;;5076187;28;20444;-89
2022/11/05 05:26:29;;;;;;;8.10;5.53;;;14.70;63.20;;;;;;5084769;28;20468;-89
2022/11/05 05:28:56;;;;;;;9.23;5.93;;;14.80;63.20;;;;;;5096463;28;20442;-88
2022/11/05 05:31:23;;;;;;;14.17;4.97;;;14.80;62.80;;;;;;5084115;28;20463;-89
2022/11/05 05:33:53;;;;;;;6.60;4.70;;;14.80;62.70;;;;;;5066454;28;20439;-88
2022/11/05 05:36:20;;;;;;;10.30;5.00;;;14.70;62.40;;;;;;5100791;28;20440;-89
2022/11/05 05:38:48;;;;;;;6.50;5.20;;;14.60;62.00;;;;;;5076316;28;20547;-88
2022/11/05 05:41:15;;;;;;;10.00;5.40;;;14.60;62.30;;;;;;5067700;28;20548;-91
2022/11/05 05:43:43;;;;;;;10.83;4.87;;;14.60;62.40;;;;;;5088297;28;20440;-89
2022/11/05 05:46:13;;;;;;;14.70;7.90;;;14.60;62.40;;;;;;5061255;28;20459;-89
2022/11/05 05:48:40;;;;;;;9.87;7.40;;;14.60;62.00;;;;;;5078372;28;20917;-87
2022/11/05 05:51:09;;;;;;;9.67;6.67;;;14.60;61.90;;;;;;5094635;28;20479;-88
2022/11/05 05:53:37;;;;;;;15.50;7.70;;;14.50;62.20;;;;;;5095470;28;20451;-88
2022/11/05 05:56:05;;;;;;;13.43;7.77;;;14.50;62.90;;;;;;5096911;28;20455;-88
2022/11/05 05:58:34;;;;;;;10.33;6.80;;;14.60;62.50;;;;;;5103061;28;20448;-89
2022/11/05 06:01:04;;;;;;;8.83;6.23;;;14.60;62.20;;;;;;5099569;28;20499;-89
2022/11/05 06:03:31;;;;;;;13.23;8.83;;;14.50;62.30;;;;;;5070072;28;20845;-89
2022/11/05 06:06:03;;;;;;;14.33;8.73;;;14.50;62.60;;;;;;5064333;28;20453;-90
2022/11/05 06:08:30;;;;;;;15.00;9.83;;;14.40;62.80;;;;;;5063425;28;20454;-90
2022/11/05 06:10:57;;;;;;;18.93;11.90;;;14.30;63.10;;;;;;5087198;28;20489;-88
2022/11/05 06:13:25;;;;;;;18.07;10.70;;;14.30;63.10;;;;;;5099535;28;20465;-88
2022/11/05 06:15:52;;;;;;;15.40;9.93;;;14.40;63.10;;;;;;5096353;28;20568;-89
2022/11/05 06:18:21;;;;;;;14.00;9.63;;;14.40;63.60;;;;;;5078232;28;20475;-89
2022/11/05 06:20:48;;;;;;;18.07;11.87;;;14.50;63.30;;;;;;5094904;28;20458;-91
2022/11/05 06:23:15;;;;;;;18.47;11.10;;;14.50;63.10;;;;;;5092918;28;20523;-88
2022/11/05 06:25:42;;;;;;;20.07;13.67;;;14.50;63.60;;;;;;5074626;28;21218;-87
2022/11/05 06:28:09;;;;;;;19.20;13.20;;;14.50;63.20;;;;;;5065663;28;20490;-90
2022/11/05 06:30:36;;;;;;;19.87;10.93;;;14.60;63.10;;;;;;5086500;28;20464;-87
2022/11/05 06:33:03;;;;;;;30.80;17.60;;;14.60;62.90;;;;;;5099523;28;20465;-88
2022/11/05 06:35:32;;;;;;;14.47;11.73;;;14.60;62.90;;;;;;5080813;28;20456;-90
2022/11/05 06:38:00;;;;;;;18.07;10.27;;;14.60;62.90;;;;;;5080462;28;20446;-90
2022/11/05 06:40:27;;;;;;;14.17;8.57;;;14.60;62.60;;;;;;5095890;28;21551;-90
2022/11/05 06:42:54;;;;;;;18.63;11.67;;;14.60;63.10;;;;;;5093844;28;20982;-87
2022/11/05 06:45:21;;;;;;;23.73;15.70;;;14.50;63.40;;;;;;5095366;28;20455;-89
2022/11/05 06:47:55;;;;;;;24.83;14.43;;;14.40;62.60;;;;;;5097518;28;21284;-89
2022/11/05 06:50:23;;;;;;;22.40;14.27;;;14.50;63.20;;;;;;5099568;28;20482;-88
2022/11/05 06:52:55;;;;;;;19.17;10.13;;;14.50;63.00;;;;;;5092864;28;20454;-89
2022/11/05 06:55:22;;;;;;;20.30;13.17;;;14.50;63.30;;;;;;5095914;28;20448;-89
2022/11/05 06:57:49;;;;;;;35.80;16.73;;;14.50;62.90;;;;;;5087800;28;20466;-90
2022/11/05 07:00:17;;;;;;;21.07;13.80;;;14.50;62.70;;;;;;5089808;28;20468;-89
2022/11/05 07:02:44;;;;;;;15.80;11.23;;;14.50;62.40;;;;;;5096078;28;20449;-89
2022/11/05 07:05:11;;;;;;;12.97;9.90;;;14.60;62.60;;;;;;5097162;28;20798;-87
2022/11/05 07:07:39;;;;;;;27.47;14.87;;;14.60;62.60;;;;;;5085689;28;20514;-88
2022/11/05 07:10:11;;;;;;;28.67;17.57;;;14.70;62.40;;;;;;5093882;28;21136;-87
2022/11/05 07:12:38;;;;;;;30.37;17.20;;;14.70;62.40;;;;;;5096737;28;21125;-88
2022/11/05 07:15:06;;;;;;;20.40;10.20;;;14.70;62.90;;;;;;5077658;28;20447;-88
2022/11/05 07:17:33;;;;;;;21.33;11.80;;;14.60;63.50;;;;;;5093503;28;20536;-86
2022/11/05 07:20:00;;;;;;;17.37;8.37;;;14.50;63.50;;;;;;5076391;28;20471;-91
2022/11/05 07:22:27;;;;;;;15.20;10.27;;;14.20;64.20;;;;;;5091595;28;20525;-88
2022/11/05 07:24:54;;;;;;;43.83;27.33;;;14.40;64.30;;;;;;5065628;28;20998;-89
2022/11/05 07:27:23;;;;;;;18.33;12.73;;;14.50;64.20;;;;;;5077680;28;20543;-88
2022/11/05 07:29:50;;;;;;;10.67;7.70;;;14.60;63.90;;;;;;5076647;28;20475;-88
2022/11/05 07:32:17;;;;;;;11.00;7.10;;;14.60;63.80;;;;;;5069212;28;20563;-90
2022/11/05 07:34:44;;;;;;;14.13;7.30;;;14.50;64.30;;;;;;5073906;28;20449;-88
2022/11/05 07:37:11;;;;;;;18.63;10.97;;;14.50;64.80;;;;;;5104330;28;20454;-90
2022/11/05 07:39:38;;;;;;;25.50;19.00;;;14.50;64.60;;;;;;5066070;28;20558;-88
2022/11/05 07:42:05;;;;;;;10.20;6.10;;;14.60;64.20;;;;;;5092829;28;20451;-88
2022/11/05 07:44:35;;;;;;;12.90;7.10;;;14.60;64.10;;;;;;5098903;28;20531;-90
2022/11/05 07:47:02;;;;;;;6.90;5.30;;;14.60;64.20;;;;;;5096396;28;20447;-89
2022/11/05 07:49:29;;;;;;;8.13;5.67;;;14.70;64.20;;;;;;5076595;28;20479;-86
2022/11/05 07:51:56;;;;;;;12.87;6.93;;;14.70;63.80;;;;;;5095662;28;20487;-87
2022/11/05 07:54:25;;;;;;;11.10;6.73;;;14.80;63.90;;;;;;5077197;28;20828;-89
2022/11/05 07:56:52;;;;;;;12.90;6.90;;;14.80;63.90;;;;;;5093763;28;20537;-88
2022/11/05 07:59:19;;;;;;;9.23;7.23;;;14.60;64.20;;;;;;5102707;28;21025;-88
2022/11/05 08:01:47;;;;;;;8.80;6.50;;;14.60;64.20;;;;;;5077494;28;20434;-88
2022/11/05 08:04:14;;;;;;;16.67;7.30;;;14.80;64.00;;;;;;5095001;28;20528;-88
2022/11/05 08:06:41;;;;;;;20.93;14.03;;;14.80;63.30;;;;;;5078033;28;20467;-89
2022/11/05 08:09:09;;;;;;;11.40;9.13;;;14.40;63.60;;;;;;5094300;28;20546;-91
2022/11/05 08:11:36;;;;;;;14.33;8.33;;;14.30;64.70;;;;;;5092666;28;20471;-91
2022/11/05 08:14:03;;;;;;;14.97;8.20;;;14.50;64.10;;;;;;5091595;28;20451;-88
2022/11/05 08:16:30;;;;;;;12.67;7.80;;;14.70;63.00;;;;;;5078830;28;20471;-88
2022/11/05 08:18:59;;;;;;;13.27;7.37;;;14.70;61.10;;;;;;5084028;28;20451;-88
2022/11/05 08:21:26;;;;;;;12.87;7.33;;;14.60;62.10;;;;;;5089852;28;20503;-88
2022/11/05 08:23:53;;;;;;;12.47;7.83;;;14.50;62.70;;;;;;5091648;28;20455;-88
2022/11/05 08:26:20;;;;;;;15.40;9.03;;;14.50;63.00;;;;;;5094015;28;20466;-89
2022/11/05 08:28:47;;;;;;;14.17;8.90;;;14.40;62.10;;;;;;5065936;28;20452;-92
2022/11/05 08:31:16;;;;;;;10.33;7.70;;;14.60;62.20;;;;;;5077857;28;20460;-89
2022/11/05 08:33:43;;;;;;;12.77;8.73;;;14.70;61.70;;;;;;5094557;28;20444;-88
2022/11/05 08:36:12;;;;;;;13.80;9.47;;;14.70;62.30;;;;;;5067689;28;20473;-84
2022/11/05 08:38:39;;;;;;;15.47;9.30;;;14.80;61.40;;;;;;5090850;28;20456;-88
2022/11/05 08:41:06;;;;;;;16.57;10.10;;;14.90;61.50;;;;;;5076802;28;20456;-89
2022/11/05 08:43:33;;;;;;;15.67;8.47;;;15.00;61.70;;;;;;5087986;28;20454;-85
2022/11/05 08:46:00;;;;;;;23.73;11.07;;;15.20;62.00;;;;;;5071625;28;20492;-89
2022/11/05 08:48:27;;;;;;;30.83;11.50;;;15.30;62.00;;;;;;5094554;28;21216;-89
2022/11/05 08:50:54;;;;;;;25.73;12.40;;;15.40;62.10;;;;;;5093844;28;20490;-89
2022/11/05 08:53:23;;;;;;;18.37;11.00;;;15.30;61.80;;;;;;5101623;28;20453;-89
2022/11/05 08:55:50;;;;;;;17.77;9.20;;;15.40;62.20;;;;;;5066966;28;20958;-89
2022/11/05 08:58:19;;;;;;;13.60;7.70;;;15.50;61.40;;;;;;5079992;28;20444;-88
2022/11/05 09:00:48;;;;;;;16.70;9.80;;;15.50;59.90;;;;;;5094773;28;20525;-90
2022/11/05 09:03:16;;;;;;;14.20;9.50;;;15.60;60.00;;;;;;5075133;28;20447;-90
2022/11/05 09:05:44;;;;;;;13.50;8.70;;;15.40;60.00;;;;;;5093799;28;20442;-89
2022/11/05 09:08:12;;;;;;;11.83;7.57;;;15.30;60.60;;;;;;5089355;28;20483;-91
2022/11/05 09:10:42;;;;;;;12.07;8.10;;;15.00;61.20;;;;;;5056788;28;20478;-90
2022/11/05 09:13:10;;;;;;;16.60;9.60;;;15.00;61.50;;;;;;5067098;28;20459;-87
2022/11/05 09:15:37;;;;;;;15.90;8.20;;;14.90;62.00;;;;;;5062506;28;20444;-91
2022/11/05 09:18:05;;;;;;;16.40;9.07;;;15.00;61.50;;;;;;5098645;28;20463;-88
2022/11/05 09:20:32;;;;;;;16.27;9.33;;;14.90;61.90;;;;;;5086721;28;20462;-89
2022/11/05 09:22:59;;;;;;;19.43;13.47;;;15.10;62.70;;;;;;5104882;28;20462;-89
2022/11/05 09:25:27;;;;;;;16.73;9.30;;;15.10;62.10;;;;;;5087034;28;20527;-91
2022/11/05 09:28:10;;;;;;;15.30;11.37;;;15.10;61.70;;;;;;5084695;28;20445;-89
2022/11/05 09:30:40;;;;;;;24.33;17.10;;;15.30;61.30;;;;;;5083623;28;20470;-90
2022/11/05 09:33:07;;;;;;;14.03;9.53;;;15.40;61.00;;;;;;5096045;28;20448;-91
2022/11/05 09:35:34;;;;;;;24.83;16.27;;;15.20;60.70;;;;;;5085567;28;21430;-90
2022/11/05 09:38:01;;;;;;;23.60;13.27;;;15.20;61.20;;;;;;5104614;28;20466;-92
2022/11/05 09:40:32;;;;;;;20.30;13.83;;;15.20;62.10;;;;;;5084554;28;20469;-89
2022/11/05 09:43:02;;;;;;;21.50;11.67;;;15.40;62.10;;;;;;5101280;28;20443;-90
2022/11/05 09:45:31;;;;;;;27.20;15.50;;;15.40;61.20;;;;;;5103771;28;20533;-89
2022/11/05 09:48:05;;;;;;;20.77;15.40;;;15.20;61.00;;;;;;5091757;28;20461;-89
2022/11/05 09:50:49;;;;;;;21.30;11.67;;;15.20;60.90;;;;;;5101700;28;20471;-92
2022/11/05 09:53:19;;;;;;;21.17;10.47;;;15.10;61.90;;;;;;5076105;28;20470;-89
2022/11/05 09:55:48;;;;;;;15.00;9.33;;;15.10;61.40;;;;;;5108606;28;20455;-88
2022/11/05 09:58:20;;;;;;;18.60;10.20;;;15.20;61.80;;;;;;5087434;28;20504;-88
2022/11/05 10:00:51;;;;;;;20.73;11.90;;;15.30;61.90;;;;;;5108502;28;20466;-89
2022/11/05 10:03:21;;;;;;;16.13;10.47;;;15.30;61.80;;;;;;5109750;28;20447;-89
2022/11/05 10:05:49;;;;;;;15.00;9.43;;;15.40;61.60;;;;;;5093626;28;20478;-87
2022/11/05 10:08:22;;;;;;;18.90;11.63;;;15.40;61.80;;;;;;5077305;28;20445;-88
2022/11/05 10:10:51;;;;;;;17.57;9.60;;;15.40;62.10;;;;;;5068109;28;20474;-89
2022/11/05 10:13:25;;;;;;;15.47;8.70;;;15.50;62.10;;;;;;5094432;28;20446;-90
2022/11/05 10:16:00;;;;;;;16.07;10.70;;;15.60;62.10;;;;;;5093487;28;20435;-87
2022/11/05 10:18:32;;;;;;;17.20;9.83;;;15.60;61.00;;;;;;5095582;28;20518;-89
2022/11/05 10:20:59;;;;;;;17.40;9.50;;;15.60;61.70;;;;;;5094213;28;20463;-89
2022/11/05 10:23:28;;;;;;;18.57;9.83;;;15.40;61.10;;;;;;5106049;28;20475;-90
2022/11/05 10:25:58;;;;;;;15.60;10.00;;;15.40;61.80;;;;;;5104524;28;20461;-88
2022/11/05 10:28:30;;;;;;;18.43;9.57;;;15.50;61.50;;;;;;5106908;28;20521;-90
2022/11/05 10:30:59;;;;;;;12.97;8.20;;;15.50;60.80;;;;;;5075816;28;20475;-89
2022/11/05 10:33:33;;;;;;;15.57;10.00;;;15.60;61.50;;;;;;5075030;28;20444;-89
2022/11/05 10:36:04;;;;;;;10.40;8.07;;;15.50;61.60;;;;;;5107756;28;20788;-89
2022/11/05 10:38:32;;;;;;;14.27;8.67;;;15.70;61.70;;;;;;5074527;28;20450;-89
2022/11/05 10:41:14;;;;;;;15.23;9.10;;;15.90;61.20;;;;;;5075071;28;20474;-89
2022/11/05 10:43:47;;;;;;;13.20;7.60;;;15.70;59.80;;;;;;5106191;28;20468;-92
2022/11/05 10:46:28;;;;;;;12.20;8.10;;;15.80;60.80;;;;;;5088510;28;20450;-88
2022/11/05 10:49:11;;;;;;;16.47;8.93;;;15.90;61.00;;;;;;5090591;28;20458;-88
2022/11/05 10:51:39;;;;;;;13.07;7.93;;;16.20;60.60;;;;;;5076254;28;20471;-90
2022/11/05 10:54:15;;;;;;;9.70;7.20;;;16.30;59.20;;;;;;5095069;28;20453;-91
2022/11/05 10:56:43;;;;;;;14.43;7.23;;;16.30;58.90;;;;;;5088383;28;20528;-90
2022/11/05 10:59:23;;;;;;;12.60;6.60;;;16.20;59.00;;;;;;5111848;28;20439;-88
2022/11/05 11:02:00;;;;;;;9.43;6.10;;;16.20;58.50;;;;;;5112029;28;20488;-88
2022/11/05 11:04:29;;;;;;;7.93;5.77;;;16.20;57.90;;;;;;5089016;28;20510;-89
2022/11/05 11:07:00;;;;;;;7.63;5.60;;;16.30;58.00;;;;;;5094463;28;20450;-89
2022/11/05 11:09:30;;;;;;;39.80;23.90;;;16.40;58.30;;;;;;5079641;28;20870;-89
2022/11/05 11:12:12;;;;;;;13.43;9.60;;;16.40;58.60;;;;;;5076647;28;20567;-89
2022/11/05 11:15:34;;;;;;;22.47;12.70;;;16.20;58.80;;;;;;5095159;28;20439;-90
2022/11/05 11:26:50;;;;;;;19.97;10.80;;;15.40;59.30;;;;;;5112852;28;20843;-90
2022/11/05 11:29:26;;;;;;;10.90;6.60;;;15.20;61.20;;;;;;5089251;28;20442;-89
2022/11/05 11:31:58;;;;;;;13.23;7.40;;;15.20;61.40;;;;;;5076094;28;21008;-88
2022/11/05 11:37:40;;;;;;;10.40;6.60;;;15.10;61.40;;;;;;5092965;28;20426;-89
2022/11/05 11:40:17;;;;;;;8.30;6.40;;;15.00;60.60;;;;;;5109546;28;20447;-89
2022/11/05 11:52:39;;;;;;;11.13;9.30;;;15.10;59.00;;;;;;5112355;28;20478;-89
2022/11/05 11:55:27;;;;;;;11.23;8.20;;;14.80;59.20;;;;;;5059269;28;20447;-89
2022/11/05 11:58:17;;;;;;;9.40;7.43;;;14.90;61.10;;;;;;5058102;28;20444;-89
2022/11/05 12:00:58;;;;;;;10.70;7.80;;;15.10;60.60;;;;;;5070445;28;20491;-90
2022/11/05 12:12:57;;;;;;;10.77;7.03;;;15.50;59.60;;;;;;5115799;28;20455;-90
2022/11/05 12:37:29;;;;;;;6.33;4.40;;;17.10;56.90;;;;;;5061818;28;20430;-90
2022/11/05 12:40:40;;;;;;;5.50;4.50;;;17.30;53.00;;;;;;5049369;28;20557;-90
2022/11/05 12:43:19;;;;;;;6.90;5.27;;;17.00;55.30;;;;;;5069801;28;20519;-90
2022/11/05 12:49:09;;;;;;;9.30;5.40;;;17.10;55.00;;;;;;5110330;28;20439;-90
2022/11/05 12:51:51;;;;;;;11.43;5.50;;;17.00;55.30;;;;;;5107892;28;20466;-91
2022/11/05 12:54:29;;;;;;;10.23;6.70;;;17.10;55.40;;;;;;5107371;28;20461;-90
2022/11/05 12:57:01;;;;;;;9.60;5.03;;;17.20;55.00;;;;;;5092510;28;20455;-90
2022/11/05 12:59:34;;;;;;;8.10;4.53;;;17.00;52.70;;;;;;5072882;28;20499;-90
2022/11/05 13:02:17;;;;;;;7.77;4.97;;;16.90;53.30;;;;;;5076950;28;20443;-91
2022/11/05 13:04:51;;;;;;;8.53;5.37;;;17.10;54.00;;;;;;5093819;28;20838;-88
2022/11/05 13:07:27;;;;;;;7.57;5.20;;;17.20;54.00;;;;;;5113375;28;20446;-91
2022/11/05 13:09:59;;;;;;;8.73;4.97;;;17.00;54.40;;;;;;5094590;28;20534;-91
2022/11/05 13:12:30;;;;;;;9.33;4.30;;;17.00;54.70;;;;;;5109491;28;20463;-91
2022/11/05 13:15:00;;;;;;;7.10;5.10;;;17.00;55.50;;;;;;5111256;28;20442;-91
2022/11/05 13:17:34;;;;;;;7.03;5.73;;;16.90;54.70;;;;;;5086675;28;20439;-92
2022/11/05 13:20:08;;;;;;;8.27;4.63;;;16.40;53.80;;;;;;5094375;28;20995;-90
2022/11/05 13:22:39;;;;;;;11.20;6.73;;;16.20;54.80;;;;;;5078666;28;20434;-91
2022/11/05 13:28:16;;;;;;;11.53;5.67;;;16.10;55.40;;;;;;5077401;28;20460;-92
2022/11/05 13:30:47;;;;;;;9.07;5.93;;;16.30;55.00;;;;;;5076586;28;20497;-89
2022/11/05 13:33:22;;;;;;;7.40;5.70;;;16.40;55.80;;;;;;5105064;28;20934;-91
2022/11/05 13:38:57;;;;;;;9.70;7.00;;;16.60;54.90;;;;;;5095638;28;20452;-90
2022/11/05 13:38:59;;;;;;;12.70;6.60;;;16.90;54.20;;;;;;5093707;28;20454;-91
2022/11/05 13:41:38;;;;;;;14.53;5.60;;;16.90;53.50;;;;;;5091782;28;20501;-91
2022/11/05 13:44:31;;;;;;;6.37;4.67;;;17.00;54.30;;;;;;5103146;28;20447;-91
2022/11/05 13:47:26;;;;;;;7.90;5.43;;;17.20;53.40;;;;;;5093716;28;20462;-91
2022/11/05 13:50:31;;;;;;;7.43;5.00;;;17.10;54.00;;;;;;5076137;28;20505;-90
2022/11/05 13:53:14;;;;;;;12.80;5.93;;;17.10;53.60;;;;;;5108560;28;20458;-92
2022/11/05 13:56:01;;;;;;;8.40;5.90;;;17.10;54.40;;;;;;5103976;28;20479;-91
2022/11/05 13:58:49;;;;;;;8.57;6.00;;;17.20;54.40;;;;;;5089038;28;20475;-91
2022/11/05 14:01:38;;;;;;;17.17;9.20;;;17.20;54.00;;;;;;5095989;28;20458;-91
2022/11/05 14:04:06;;;;;;;8.33;5.13;;;16.90;53.60;;;;;;5076957;28;20443;-92
2022/11/05 14:06:36;;;;;;;8.27;5.07;;;16.60;54.20;;;;;;5089568;28;20432;-92
2022/11/05 14:09:08;;;;;;;9.63;5.37;;;16.70;54.80;;;;;;5093728;28;20435;-92
2022/11/05 14:11:38;;;;;;;7.67;5.23;;;16.70;54.80;;;;;;5109372;28;20451;-91
2022/11/05 14:14:08;;;;;;;14.63;5.43;;;16.60;54.80;;;;;;5077161;28;20977;-90
2022/11/05 14:16:49;;;;;;;6.37;4.30;;;16.60;54.20;;;;;;5103387;28;20481;-92
2022/11/05 14:19:33;;;;;;;9.87;5.80;;;16.50;53.90;;;;;;5105900;28;20466;-90
2022/11/05 14:22:28;;;;;;;7.03;5.70;;;16.50;54.20;;;;;;5126508;27;20542;-91
2022/11/05 14:24:56;;;;;;;7.13;5.50;;;16.50;54.00;;;;;;5090344;28;20934;-91
2022/11/05 14:27:48;;;;;;;8.60;4.77;;;16.30;54.60;;;;;;5110656;28;20450;-92
2022/11/05 14:30:41;;;;;;;8.20;5.77;;;16.20;55.20;;;;;;5086696;28;20465;-90
2022/11/05 14:33:30;;;;;;;9.97;6.80;;;16.30;55.30;;;;;;5075266;28;20474;-92
2022/11/05 14:36:27;;;;;;;10.13;5.60;;;16.10;54.60;;;;;;5108424;28;20453;-90
2022/11/05 14:38:59;;;;;;;8.53;5.47;;;16.00;54.20;;;;;;5074473;28;20443;-91
2022/11/05 14:41:26;;;;;;;8.27;6.07;;;15.90;55.00;;;;;;5093741;28;20490;-92
2022/11/05 14:43:59;;;;;;;9.40;5.70;;;16.10;55.00;;;;;;5108998;28;20454;-91